Time;durP1;ratioP1;P1;durP2;ratioP2;P2;SDS_P1;SDS_P2;PMS_P1;PMS_P2;Temp;Humidity;BMP_temperature;BMP_pressure;BME280_temperature;BME280_humidity;BME280_pressure;Samples;Min_cycle;Max_cycle;Signal;HPM_P1;HPM_P2
2023/06/14 00:01:21;;;;;;;10.98;5.65;;;20.60;99.90;;;;;;5012748;28;20190;-70
2023/06/14 00:03:48;;;;;;;10.50;5.28;;;20.70;99.90;;;;;;5012510;28;20210;-70
2023/06/14 00:06:14;;;;;;;8.88;5.60;;;20.60;99.90;;;;;;5012833;28;20179;-70
2023/06/14 00:08:40;;;;;;;9.85;5.32;;;20.50;99.90;;;;;;5012623;28;20218;-70
2023/06/14 00:11:06;;;;;;;8.70;5.65;;;20.50;99.90;;;;;;5012644;28;20169;-70
2023/06/14 00:13:33;;;;;;;7.90;5.22;;;20.40;99.90;;;;;;5012666;28;20174;-69
2023/06/14 00:15:58;;;;;;;9.38;4.90;;;20.40;99.90;;;;;;5012404;28;20166;-69
2023/06/14 00:18:24;;;;;;;11.68;5.95;;;20.40;99.90;;;;;;5012419;28;20182;-70
2023/06/14 00:20:53;;;;;;;10.55;5.30;;;20.30;99.90;;;;;;4995077;28;20179;-70
2023/06/14 00:23:19;;;;;;;14.55;5.43;;;20.20;99.90;;;;;;5013078;28;20194;-70
2023/06/14 00:25:45;;;;;;;7.53;5.00;;;20.20;99.90;;;;;;5012433;28;20233;-69
2023/06/14 00:28:10;;;;;;;11.98;5.82;;;20.20;99.90;;;;;;5013074;28;20521;-70
2023/06/14 00:30:36;;;;;;;9.05;5.40;;;20.10;99.90;;;;;;5013129;28;20182;-71
2023/06/14 00:33:02;;;;;;;8.50;5.38;;;20.10;99.90;;;;;;5012783;28;20622;-71
2023/06/14 00:35:28;;;;;;;8.93;5.25;;;20.10;99.90;;;;;;5012135;28;20177;-70
2023/06/14 00:37:54;;;;;;;10.07;5.85;;;19.80;99.90;;;;;;5012368;28;20166;-70
2023/06/14 00:40:21;;;;;;;10.75;5.25;;;;;;;;;;5012226;28;20266;-70
2023/06/14 00:42:47;;;;;;;8.60;5.32;;;;;;;;;;5012286;28;20198;-71
2023/06/14 00:45:13;;;;;;;7.70;5.55;;;19.80;99.90;;;;;;5011950;28;20240;-69
2023/06/14 00:47:41;;;;;;;9.13;5.32;;;19.70;99.90;;;;;;5012075;28;20590;-75
2023/06/14 00:50:07;;;;;;;12.40;5.88;;;19.60;99.90;;;;;;5011714;28;20234;-66
2023/06/14 00:52:34;;;;;;;7.50;4.93;;;19.50;99.90;;;;;;5010911;28;20659;-69
2023/06/14 00:55:00;;;;;;;7.63;5.53;;;19.70;99.90;;;;;;4993314;28;20553;-68
2023/06/14 00:57:27;;;;;;;13.05;6.05;;;19.50;99.90;;;;;;5011235;28;20265;-68
2023/06/14 00:59:52;;;;;;;11.82;5.55;;;19.40;99.90;;;;;;5010915;28;20679;-67
2023/06/14 01:02:18;;;;;;;20.88;5.80;;;19.40;99.90;;;;;;4993327;28;20170;-68
2023/06/14 01:04:47;;;;;;;6.95;4.93;;;19.40;99.90;;;;;;5010839;28;20296;-66
2023/06/14 01:07:38;;;;;;;13.98;5.75;;;19.40;99.90;;;;;;5010561;28;20185;-67
2023/06/14 01:10:13;;;;;;;8.07;4.90;;;19.30;99.90;;;;;;4991140;28;20242;-68
2023/06/14 01:12:55;;;;;;;14.40;5.18;;;19.20;99.90;;;;;;5017320;28;20259;-67
2023/06/14 01:15:21;;;;;;;9.75;5.10;;;19.20;99.90;;;;;;5029580;28;20198;-68
2023/06/14 01:17:51;;;;;;;23.17;5.45;;;19.10;99.90;;;;;;5029714;28;20265;-68
2023/06/14 01:20:19;;;;;;;12.82;4.65;;;19.10;99.90;;;;;;5018465;28;20182;-68
2023/06/14 01:22:52;;;;;;;6.43;4.85;;;19.10;99.90;;;;;;5025795;28;20192;-70
2023/06/14 01:25:22;;;;;;;8.60;5.20;;;19.10;99.90;;;;;;5021527;28;20213;-70
2023/06/14 01:27:57;;;;;;;7.85;5.03;;;19.00;99.90;;;;;;5010635;28;20171;-70
2023/06/14 01:30:25;;;;;;;14.45;4.40;;;18.70;99.90;;;;;;5007329;28;20185;-69
2023/06/14 01:32:53;;;;;;;13.48;5.10;;;18.90;99.90;;;;;;5016478;28;20664;-69
2023/06/14 01:35:19;;;;;;;11.63;5.00;;;18.90;99.90;;;;;;5019492;28;20241;-67
2023/06/14 01:37:47;;;;;;;10.77;4.63;;;18.90;99.90;;;;;;5022517;28;20170;-69
2023/06/14 01:40:15;;;;;;;7.38;4.45;;;18.90;99.90;;;;;;5012436;28;20675;-68
2023/06/14 01:42:41;;;;;;;6.80;4.45;;;18.90;99.90;;;;;;5013668;28;20182;-68
2023/06/14 01:45:08;;;;;;;7.07;4.75;;;18.90;99.90;;;;;;5014993;28;20182;-68
2023/06/14 01:47:35;;;;;;;8.50;4.43;;;18.90;99.90;;;;;;4996889;28;20265;-68
2023/06/14 01:50:05;;;;;;;8.20;4.70;;;18.80;99.90;;;;;;4972335;28;1207246;-68
2023/06/14 01:52:31;;;;;;;7.65;4.57;;;18.80;99.90;;;;;;5015261;28;20210;-69
2023/06/14 01:54:57;;;;;;;11.30;4.72;;;18.70;99.90;;;;;;5015022;28;20268;-68
2023/06/14 01:57:24;;;;;;;12.93;4.93;;;18.70;99.90;;;;;;5015131;28;20197;-70
2023/06/14 01:59:50;;;;;;;8.77;4.40;;;18.60;99.90;;;;;;5015042;28;20182;-69
2023/06/14 02:02:16;;;;;;;8.60;4.72;;;18.50;99.90;;;;;;4997411;28;20658;-69
2023/06/14 02:04:42;;;;;;;7.90;5.07;;;18.50;99.90;;;;;;5014964;28;20252;-69
2023/06/14 02:07:10;;;;;;;8.18;4.70;;;18.40;99.90;;;;;;5014997;28;20189;-69
2023/06/14 02:09:36;;;;;;;10.70;5.57;;;18.30;99.90;;;;;;5014864;28;20174;-70
2023/06/14 02:12:01;;;;;;;10.85;4.72;;;18.20;99.90;;;;;;5014734;28;20660;-69
2023/06/14 02:14:27;;;;;;;7.05;4.13;;;18.10;99.90;;;;;;5014759;28;20301;-68
2023/06/14 02:16:53;;;;;;;7.32;4.10;;;18.10;99.90;;;;;;5014783;28;20167;-68
2023/06/14 02:19:20;;;;;;;8.43;4.13;;;18.10;99.90;;;;;;5014555;28;20190;-68
2023/06/14 02:21:46;;;;;;;9.77;4.05;;;18.10;99.90;;;;;;5014582;28;20171;-67
2023/06/14 02:24:13;;;;;;;9.68;3.88;;;18.10;99.90;;;;;;5015358;28;20262;-67
2023/06/14 02:26:38;;;;;;;9.30;4.10;;;18.10;99.90;;;;;;5015470;28;20175;-67
2023/06/14 02:29:05;;;;;;;6.70;3.70;;;18.00;99.90;;;;;;5033383;28;20694;-67
2023/06/14 02:31:32;;;;;;;9.75;4.28;;;18.00;99.90;;;;;;5026041;28;20655;-70
2023/06/14 02:33:58;;;;;;;9.32;4.13;;;18.00;99.90;;;;;;5014463;28;20672;-70
2023/06/14 02:36:24;;;;;;;10.73;4.38;;;17.90;99.90;;;;;;5014163;28;20174;-70
2023/06/14 02:38:50;;;;;;;9.70;4.45;;;17.80;99.90;;;;;;5014434;28;20182;-69
2023/06/14 02:41:15;;;;;;;7.00;4.13;;;17.80;99.90;;;;;;5014261;28;20167;-69
2023/06/14 02:43:43;;;;;;;6.93;4.28;;;17.70;99.90;;;;;;5014365;28;20171;-69
2023/06/14 02:46:08;;;;;;;6.00;4.15;;;17.60;99.90;;;;;;5014553;28;20266;-69
2023/06/14 02:48:34;;;;;;;9.05;4.38;;;17.60;99.90;;;;;;5014033;28;20661;-69
2023/06/14 02:50:59;;;;;;;9.80;4.30;;;17.40;99.90;;;;;;5013963;28;20287;-67
2023/06/14 02:53:25;;;;;;;8.00;4.40;;;17.40;99.90;;;;;;5013631;28;20241;-67
2023/06/14 02:55:52;;;;;;;7.82;3.97;;;;;;;;;;5013848;28;20186;-67
2023/06/14 02:58:18;;;;;;;8.38;4.10;;;17.30;99.90;;;;;;5014074;28;20217;-68
2023/06/14 03:00:43;;;;;;;6.18;4.15;;;17.30;99.90;;;;;;5013775;28;20179;-70
2023/06/14 03:03:13;;;;;;;8.65;4.53;;;17.20;99.90;;;;;;5013690;28;20229;-70
2023/06/14 03:05:49;;;;;;;7.28;4.10;;;17.20;99.90;;;;;;5013625;28;20652;-69
2023/06/14 03:08:16;;;;;;;8.48;4.07;;;17.10;99.90;;;;;;5013600;28;20181;-69
2023/06/14 03:10:49;;;;;;;11.40;4.25;;;17.00;99.90;;;;;;5013428;28;20182;-68
2023/06/14 03:13:21;;;;;;;12.88;4.43;;;16.90;99.90;;;;;;5013217;28;20187;-69
2023/06/14 03:15:47;;;;;;;11.63;3.85;;;16.80;99.90;;;;;;5013529;28;20233;-69
2023/06/14 03:18:14;;;;;;;8.40;4.10;;;16.80;99.90;;;;;;5032669;28;20698;-68
2023/06/14 03:20:40;;;;;;;6.78;4.13;;;16.80;99.90;;;;;;5026779;28;20257;-69
2023/06/14 03:23:07;;;;;;;7.45;3.90;;;16.90;99.90;;;;;;5013206;28;20266;-69
2023/06/14 03:25:35;;;;;;;7.32;4.10;;;16.80;99.90;;;;;;5013293;28;20273;-70
2023/06/14 03:28:01;;;;;;;8.90;4.32;;;16.50;99.90;;;;;;5014034;28;20182;-73
2023/06/14 03:30:27;;;;;;;9.15;4.22;;;16.60;99.90;;;;;;5013741;28;20175;-73
2023/06/14 03:32:55;;;;;;;8.25;4.32;;;16.50;99.90;;;;;;5006539;28;20182;-72
2023/06/14 03:35:21;;;;;;;7.68;4.50;;;16.50;99.90;;;;;;5009866;28;20218;-73
2023/06/14 03:37:47;;;;;;;9.15;4.63;;;16.40;99.90;;;;;;5009988;28;20678;-72
2023/06/14 03:40:14;;;;;;;9.80;4.80;;;16.40;99.90;;;;;;4997841;28;20617;-73
2023/06/14 03:42:40;;;;;;;11.30;4.97;;;16.30;99.90;;;;;;5012994;28;20641;-73
2023/06/14 03:45:06;;;;;;;14.70;5.20;;;16.30;99.90;;;;;;5012896;28;20171;-74
2023/06/14 03:47:32;;;;;;;10.18;4.90;;;16.30;99.90;;;;;;5012835;28;20274;-75
2023/06/14 03:49:58;;;;;;;11.98;5.00;;;16.20;99.90;;;;;;5013761;28;20296;-77
2023/06/14 03:52:24;;;;;;;10.68;5.80;;;16.20;99.90;;;;;;5013043;28;20241;-76
2023/06/14 03:54:51;;;;;;;9.18;5.18;;;16.20;99.90;;;;;;5017138;28;20225;-78
2023/06/14 03:57:17;;;;;;;13.95;5.28;;;16.30;99.90;;;;;;5032414;28;20178;-78
2023/06/14 03:59:43;;;;;;;11.57;5.40;;;16.20;99.90;;;;;;5032340;28;20170;-69
2023/06/14 04:02:09;;;;;;;7.50;4.70;;;16.20;99.90;;;;;;5024235;28;20285;-70
2023/06/14 04:04:35;;;;;;;9.10;5.03;;;16.20;99.90;;;;;;5011967;28;20198;-70
2023/06/14 04:07:03;;;;;;;10.60;4.75;;;16.20;99.90;;;;;;5015894;28;20210;-70
2023/06/14 04:09:31;;;;;;;13.27;4.68;;;16.10;99.90;;;;;;5012702;28;20179;-71
2023/06/14 04:11:56;;;;;;;10.15;4.70;;;16.10;99.90;;;;;;5016781;28;20306;-71
2023/06/14 04:14:22;;;;;;;12.07;4.82;;;;;;;;;;5023216;28;20568;-71
2023/06/14 04:16:49;;;;;;;11.02;4.30;;;15.90;99.90;;;;;;5022601;28;20265;-73
2023/06/14 04:19:15;;;;;;;12.05;4.30;;;16.00;99.90;;;;;;5024182;28;20201;-72
2023/06/14 04:21:41;;;;;;;10.75;4.90;;;15.90;99.90;;;;;;5016753;28;20196;-72
2023/06/14 04:24:13;;;;;;;10.43;4.38;;;15.90;99.90;;;;;;5013538;28;20633;-72
2023/06/14 04:26:44;;;;;;;8.13;4.47;;;15.80;99.90;;;;;;5013011;28;20253;-71
2023/06/14 04:29:19;;;;;;;10.18;4.68;;;15.70;99.90;;;;;;5012632;28;20361;-72
2023/06/14 04:31:45;;;;;;;8.88;4.55;;;15.80;99.90;;;;;;5012715;28;20252;-71
2023/06/14 04:34:16;;;;;;;11.70;4.22;;;15.70;99.90;;;;;;4994702;28;20689;-70
2023/06/14 04:36:49;;;;;;;9.70;3.95;;;15.70;99.90;;;;;;5012300;28;20201;-71
2023/06/14 04:39:17;;;;;;;8.55;4.38;;;15.80;99.90;;;;;;5012033;28;20192;-72
2023/06/14 04:41:43;;;;;;;12.90;3.80;;;15.60;99.90;;;;;;5011969;28;20217;-70
2023/06/14 04:44:09;;;;;;;7.10;3.72;;;15.60;99.90;;;;;;5012226;28;20202;-69
2023/06/14 04:46:45;;;;;;;12.15;4.13;;;15.60;99.90;;;;;;5011819;28;20169;-69
2023/06/14 04:49:14;;;;;;;9.55;4.10;;;15.50;99.90;;;;;;5011873;28;20269;-70
2023/06/14 04:51:40;;;;;;;10.23;3.85;;;15.50;99.90;;;;;;5011617;28;20222;-71
2023/06/14 04:54:10;;;;;;;6.25;3.65;;;15.50;99.90;;;;;;5011809;28;20603;-71
2023/06/14 04:56:37;;;;;;;10.55;3.72;;;15.40;99.90;;;;;;5011744;28;20170;-70
2023/06/14 04:59:06;;;;;;;7.65;3.28;;;15.30;99.90;;;;;;5011814;28;20174;-71
2023/06/14 05:01:33;;;;;;;8.73;3.50;;;15.40;99.90;;;;;;5011683;28;20649;-73
2023/06/14 05:03:59;;;;;;;9.85;2.97;;;15.30;99.90;;;;;;5011722;28;20202;-71
2023/06/14 05:06:27;;;;;;;8.35;3.75;;;15.30;99.90;;;;;;5011550;28;20175;-71
2023/06/14 05:08:53;;;;;;;9.90;3.42;;;15.30;99.90;;;;;;5011769;28;20189;-71
2023/06/14 05:11:18;;;;;;;7.20;3.70;;;15.30;99.90;;;;;;5011530;28;20178;-71
2023/06/14 05:13:44;;;;;;;7.72;3.63;;;15.30;99.90;;;;;;5011535;28;20194;-72
2023/06/14 05:16:11;;;;;;;7.50;3.65;;;15.30;99.90;;;;;;5011533;28;20261;-72
2023/06/14 05:18:38;;;;;;;8.75;3.05;;;15.20;99.90;;;;;;5011493;28;20171;-72
2023/06/14 05:21:06;;;;;;;7.15;3.78;;;15.30;99.90;;;;;;5011349;28;20208;-77
2023/06/14 05:23:32;;;;;;;9.35;3.70;;;15.20;99.90;;;;;;5011339;28;20178;-77
2023/06/14 05:25:58;;;;;;;12.43;3.85;;;15.20;99.90;;;;;;5011715;28;20175;-78
2023/06/14 05:28:24;;;;;;;10.43;3.33;;;15.20;99.90;;;;;;5011291;28;20178;-68
2023/06/14 05:30:51;;;;;;;5.97;3.42;;;16.20;99.90;;;;;;4993976;28;20167;-73
2023/06/14 05:33:16;;;;;;;13.27;3.33;;;15.20;99.90;;;;;;5011298;28;20174;-71
2023/06/14 05:35:42;;;;;;;9.20;3.40;;;15.20;99.90;;;;;;4993974;28;20166;-72
2023/06/14 05:38:08;;;;;;;7.60;3.80;;;15.20;99.90;;;;;;5011317;28;20221;-71
2023/06/14 05:40:34;;;;;;;11.82;3.85;;;15.20;99.90;;;;;;5011106;28;20173;-71
2023/06/14 05:42:59;;;;;;;13.25;4.03;;;15.20;99.90;;;;;;5011221;28;20511;-72
2023/06/14 05:45:25;;;;;;;6.47;3.15;;;15.30;99.90;;;;;;5011289;28;20214;-72
2023/06/14 05:47:51;;;;;;;9.20;3.60;;;15.30;99.90;;;;;;4993623;28;20178;-72
2023/06/14 05:50:16;;;;;;;9.07;3.40;;;15.30;99.90;;;;;;5011072;28;20264;-71
2023/06/14 05:52:42;;;;;;;5.55;3.05;;;15.30;99.90;;;;;;5011194;28;20175;-71
2023/06/14 05:55:08;;;;;;;11.25;4.13;;;15.30;99.90;;;;;;5011346;28;20294;-72
2023/06/14 05:57:34;;;;;;;13.80;3.53;;;15.40;99.90;;;;;;5011277;28;20163;-72
2023/06/14 05:59:59;;;;;;;5.65;3.17;;;15.40;99.90;;;;;;5010774;28;20667;-70
2023/06/14 06:02:25;;;;;;;8.35;3.58;;;15.40;99.90;;;;;;5011110;28;20258;-68
2023/06/14 06:04:51;;;;;;;7.72;3.83;;;15.50;99.90;;;;;;5011094;28;20538;-71
2023/06/14 06:07:16;;;;;;;13.05;3.70;;;15.50;99.90;;;;;;5013222;28;20178;-70
2023/06/14 06:09:42;;;;;;;6.75;3.45;;;15.60;99.90;;;;;;5011761;28;20182;-70
2023/06/14 06:12:07;;;;;;;7.43;3.22;;;15.60;99.90;;;;;;5012413;28;20724;-69
2023/06/14 06:14:33;;;;;;;7.05;3.50;;;15.60;99.90;;;;;;5011050;28;20214;-69
2023/06/14 06:16:59;;;;;;;8.25;3.30;;;15.70;99.90;;;;;;5008971;28;20174;-69
2023/06/14 06:19:25;;;;;;;13.63;3.75;;;15.70;99.90;;;;;;5000439;28;20178;-69
2023/06/14 06:21:50;;;;;;;5.97;3.30;;;15.70;99.90;;;;;;5024820;28;20189;-65
2023/06/14 06:24:16;;;;;;;12.23;3.67;;;15.70;99.90;;;;;;5025908;28;20182;-69
2023/06/14 06:26:42;;;;;;;11.35;3.70;;;15.80;99.90;;;;;;5010118;28;20178;-68
2023/06/14 06:29:08;;;;;;;6.75;3.10;;;15.80;99.90;;;;;;5025435;28;20611;-66
2023/06/14 06:31:34;;;;;;;7.85;3.40;;;15.90;99.90;;;;;;5018425;28;20213;-67
2023/06/14 06:33:59;;;;;;;7.55;3.90;;;15.90;99.90;;;;;;5014074;28;20321;-68
2023/06/14 06:36:25;;;;;;;8.90;3.67;;;15.90;99.90;;;;;;5014261;28;20685;-67
2023/06/14 06:38:51;;;;;;;17.17;3.75;;;15.90;99.90;;;;;;5014166;28;20178;-68
2023/06/14 06:41:16;;;;;;;12.95;3.50;;;15.90;99.90;;;;;;5014169;28;20258;-66
2023/06/14 06:43:42;;;;;;;8.93;3.90;;;16.00;99.90;;;;;;5014164;28;20174;-72
2023/06/14 06:46:08;;;;;;;9.40;3.70;;;16.00;99.90;;;;;;5014134;28;20611;-66
2023/06/14 06:48:33;;;;;;;7.68;3.15;;;16.10;99.90;;;;;;5013865;28;20197;-68
2023/06/14 06:50:59;;;;;;;11.32;3.65;;;16.20;99.90;;;;;;5013736;28;20272;-68
2023/06/14 06:53:25;;;;;;;13.35;3.42;;;16.20;99.90;;;;;;5018799;28;20197;-69
2023/06/14 06:55:50;;;;;;;4.32;2.75;;;16.20;99.90;;;;;;5021251;28;20195;-68
2023/06/14 06:58:16;;;;;;;10.45;3.53;;;16.30;99.90;;;;;;4996411;28;20167;-67
2023/06/14 07:00:42;;;;;;;14.32;3.63;;;16.30;99.90;;;;;;5017893;28;20590;-68
2023/06/14 07:03:07;;;;;;;6.25;3.03;;;16.20;99.90;;;;;;5015624;28;20183;-71
2023/06/14 07:05:34;;;;;;;9.75;3.50;;;;;;;;;;5014534;28;20186;-68
2023/06/14 07:07:59;;;;;;;13.75;4.68;;;16.30;99.90;;;;;;5013997;28;20166;-70
2023/06/14 07:10:25;;;;;;;13.65;4.00;;;16.40;99.90;;;;;;5013917;28;20258;-70
2023/06/14 07:12:51;;;;;;;12.80;4.60;;;16.40;99.90;;;;;;5014389;28;20708;-67
2023/06/14 07:15:16;;;;;;;11.95;3.92;;;16.40;99.90;;;;;;5013708;28;20213;-68
2023/06/14 07:17:42;;;;;;;10.15;3.30;;;16.30;99.90;;;;;;4995921;28;20185;-68
2023/06/14 07:20:11;;;;;;;11.18;3.72;;;16.50;99.90;;;;;;5013611;28;20178;-69
2023/06/14 07:22:41;;;;;;;17.40;3.92;;;16.60;99.90;;;;;;5014634;28;20169;-69
2023/06/14 07:25:13;;;;;;;14.75;3.65;;;16.60;99.90;;;;;;5033162;28;20210;-69
2023/06/14 07:27:40;;;;;;;13.05;3.58;;;16.70;99.90;;;;;;5033197;28;20259;-67
2023/06/14 07:30:07;;;;;;;10.32;3.80;;;16.70;99.90;;;;;;5033017;28;20542;-64
2023/06/14 07:32:32;;;;;;;8.32;3.83;;;16.80;99.90;;;;;;5030424;28;20233;-67
2023/06/14 07:34:58;;;;;;;7.30;3.47;;;16.80;99.90;;;;;;5032894;28;20909;-68
2023/06/14 07:37:24;;;;;;;8.75;3.22;;;16.90;99.90;;;;;;5032932;28;20173;-69
2023/06/14 07:39:49;;;;;;;9.15;3.67;;;17.00;99.90;;;;;;5029894;28;20170;-72
2023/06/14 07:42:15;;;;;;;10.38;3.80;;;17.10;99.90;;;;;;5009776;28;20175;-64
2023/06/14 07:44:41;;;;;;;10.68;3.60;;;17.10;99.90;;;;;;5032793;28;20265;-73
2023/06/14 07:47:06;;;;;;;9.70;3.80;;;17.00;99.90;;;;;;5032653;28;20647;-67
2023/06/14 07:49:32;;;;;;;9.60;3.60;;;17.10;99.90;;;;;;5014891;28;20308;-66
2023/06/14 07:51:58;;;;;;;11.43;3.30;;;17.00;99.90;;;;;;5021942;28;20233;-71
2023/06/14 07:54:26;;;;;;;30.88;6.63;;;17.10;99.90;;;;;;5012703;28;20244;-71
2023/06/14 07:56:52;;;;;;;15.80;4.60;;;17.10;99.90;;;;;;5012996;28;20271;-77
2023/06/14 07:59:17;;;;;;;11.48;3.97;;;17.20;99.90;;;;;;5012810;28;20581;-69
2023/06/14 08:01:47;;;;;;;14.23;3.85;;;17.30;99.90;;;;;;5021101;28;20182;-64
2023/06/14 08:04:16;;;;;;;9.77;3.40;;;17.40;99.90;;;;;;5032497;28;20182;-65
2023/06/14 08:06:45;;;;;;;9.75;3.50;;;17.40;99.90;;;;;;5027897;28;20174;-69
2023/06/14 08:09:12;;;;;;;13.73;3.90;;;17.60;99.90;;;;;;5031956;28;20280;-67
2023/06/14 08:11:38;;;;;;;7.88;3.20;;;18.00;99.90;;;;;;5033524;28;20178;-70
2023/06/14 08:14:03;;;;;;;11.25;3.65;;;17.80;99.90;;;;;;5032532;28;20300;-70
2023/06/14 08:16:29;;;;;;;9.75;3.67;;;17.90;99.90;;;;;;5030778;28;20216;-70
2023/06/14 08:18:56;;;;;;;7.85;3.78;;;18.30;99.90;;;;;;5015468;28;20180;-70
2023/06/14 08:21:21;;;;;;;14.40;3.88;;;18.20;99.90;;;;;;5021542;28;20193;-68
2023/06/14 08:23:47;;;;;;;7.50;3.40;;;18.40;99.90;;;;;;4995613;28;20183;-70
2023/06/14 08:26:13;;;;;;;9.60;3.30;;;;;;;;;;5011131;28;20178;-68
2023/06/14 08:28:39;;;;;;;8.10;3.22;;;18.60;99.90;;;;;;5012193;28;20188;-67
2023/06/14 08:31:04;;;;;;;14.95;3.42;;;18.80;99.90;;;;;;5011904;28;20260;-69
2023/06/14 08:33:33;;;;;;;15.98;3.95;;;18.80;99.90;;;;;;5026382;28;20695;-67
2023/06/14 08:36:00;;;;;;;7.97;3.50;;;18.90;99.90;;;;;;5031773;28;20256;-67
2023/06/14 08:38:25;;;;;;;12.60;3.63;;;18.90;99.90;;;;;;5031656;28;20182;-67
2023/06/14 08:40:56;;;;;;;8.52;3.65;;;18.90;99.90;;;;;;5031767;28;20174;-66
2023/06/14 08:43:22;;;;;;;8.02;3.70;;;19.10;99.90;;;;;;5020503;28;20187;-67
2023/06/14 08:45:50;;;;;;;8.80;3.85;;;19.00;99.90;;;;;;5011820;28;20316;-66
2023/06/14 08:48:20;;;;;;;11.48;4.53;;;19.20;99.90;;;;;;5012143;28;20174;-67
2023/06/14 08:50:47;;;;;;;14.18;3.70;;;19.30;99.90;;;;;;4993916;28;20558;-67
2023/06/14 08:53:16;;;;;;;10.90;3.85;;;19.60;99.90;;;;;;5012608;28;20194;-69
2023/06/14 08:55:43;;;;;;;8.45;3.85;;;19.80;99.90;;;;;;5011759;28;20183;-66
2023/06/14 08:58:09;;;;;;;7.85;3.60;;;19.90;99.90;;;;;;5011973;28;20179;-68
2023/06/14 09:00:38;;;;;;;16.60;3.60;;;19.90;99.90;;;;;;4993404;28;20537;-67
2023/06/14 09:03:05;;;;;;;17.25;5.03;;;19.80;99.90;;;;;;5022730;28;20260;-69
2023/06/14 09:05:31;;;;;;;15.25;3.97;;;20.10;99.90;;;;;;5014785;28;20676;-68
2023/06/14 09:08:00;;;;;;;19.45;4.15;;;20.00;99.90;;;;;;5021220;28;20264;-68
2023/06/14 09:10:27;;;;;;;12.23;3.65;;;20.20;99.90;;;;;;5031095;28;20544;-67
2023/06/14 09:12:53;;;;;;;9.60;3.25;;;20.50;99.90;;;;;;5031130;28;20612;-68
2023/06/14 09:15:20;;;;;;;10.10;3.78;;;20.60;99.90;;;;;;5031143;28;20300;-67
2023/06/14 09:17:45;;;;;;;18.48;4.45;;;20.40;99.90;;;;;;5013431;28;20543;-68
2023/06/14 09:20:18;;;;;;;9.38;3.80;;;20.50;99.90;;;;;;5031390;28;20177;-68
2023/06/14 09:22:44;;;;;;;7.53;3.60;;;20.70;99.90;;;;;;5031009;28;20170;-66
2023/06/14 09:25:11;;;;;;;15.60;3.80;;;20.80;99.90;;;;;;5030991;28;20632;-67
2023/06/14 09:27:39;;;;;;;9.10;3.47;;;20.90;99.90;;;;;;5030901;28;20636;-67
2023/06/14 09:30:08;;;;;;;9.50;3.45;;;21.20;99.90;;;;;;5031132;28;20240;-66
2023/06/14 09:32:37;;;;;;;10.82;3.53;;;21.40;99.90;;;;;;5031556;28;20205;-67
2023/06/14 09:35:06;;;;;;;5.60;2.97;;;21.50;99.90;;;;;;5013480;28;20218;-68
2023/06/14 09:37:33;;;;;;;9.48;3.13;;;21.70;99.90;;;;;;5030888;28;20719;-68
2023/06/14 09:39:59;;;;;;;12.65;3.65;;;21.80;99.90;;;;;;5031411;28;20181;-67
2023/06/14 09:42:28;;;;;;;15.25;3.70;;;22.00;99.90;;;;;;5031123;28;20184;-67
2023/06/14 09:44:56;;;;;;;13.75;4.07;;;22.50;99.90;;;;;;5031032;28;20236;-68
2023/06/14 09:47:25;;;;;;;13.15;3.78;;;22.40;99.90;;;;;;5013965;28;20181;-64
2023/06/14 09:49:54;;;;;;;9.65;3.65;;;22.50;99.90;;;;;;5030936;28;20303;-67
2023/06/14 09:52:21;;;;;;;10.77;3.38;;;22.90;99.90;;;;;;5030817;28;20222;-68
2023/06/14 09:54:48;;;;;;;11.05;3.05;;;23.70;99.90;;;;;;5030707;28;20335;-68
2023/06/14 09:57:16;;;;;;;12.85;3.60;;;23.70;99.90;;;;;;5030801;28;20532;-68
2023/06/14 09:59:45;;;;;;;9.65;3.75;;;23.70;99.90;;;;;;5030820;28;20661;-68
2023/06/14 10:02:35;;;;;;;8.85;3.67;;;23.90;99.90;;;;;;5031388;28;20647;-68
2023/06/14 10:05:06;;;;;;;9.95;3.35;;;23.90;99.90;;;;;;5034733;28;20182;-68
2023/06/14 10:08:04;;;;;;;5.60;2.92;;;24.30;99.90;;;;;;5034562;28;20215;-68
2023/06/14 10:10:30;;;;;;;7.65;2.60;;;24.30;99.90;;;;;;5027892;28;20182;-67
2023/06/14 10:12:56;;;;;;;7.25;3.00;;;24.30;99.90;;;;;;5034491;28;20169;-68
2023/06/14 10:15:38;;;;;;;10.30;2.92;;;24.70;88.70;;;;;;5034355;28;20216;-68
2023/06/14 10:18:28;;;;;;;6.78;3.28;;;25.50;93.20;;;;;;5034231;28;20182;-68
2023/06/14 10:21:32;;;;;;;10.25;3.58;;;24.80;72.00;;;;;;5034379;28;20189;-68
2023/06/14 10:24:03;;;;;;;7.40;3.15;;;25.10;77.60;;;;;;5034380;28;20174;-67
2023/06/14 10:26:29;;;;;;;12.38;3.58;;;25.60;83.20;;;;;;5021725;28;20202;-67
2023/06/14 10:29:01;;;;;;;6.72;2.90;;;25.50;74.80;;;;;;5005394;28;20221;-68
2023/06/14 10:31:46;;;;;;;12.20;3.30;;;25.70;71.00;;;;;;5014310;28;20213;-67
2023/06/14 10:34:23;;;;;;;7.78;3.03;;;25.60;68.30;;;;;;5014321;28;20244;-68
2023/06/14 10:37:03;;;;;;;10.73;2.95;;;25.90;79.80;;;;;;5014327;28;20170;-68
2023/06/14 10:39:30;;;;;;;13.32;3.30;;;26.60;63.50;;;;;;5014310;28;20183;-67
2023/06/14 10:41:57;;;;;;;10.15;3.63;;;26.40;48.20;;;;;;5014217;28;20237;-67
2023/06/14 10:44:22;;;;;;;9.77;3.47;;;26.70;36.30;;;;;;5014103;28;20163;-67
2023/06/14 10:46:51;;;;;;;6.65;3.30;;;26.90;26.20;;;;;;5014169;28;20700;-68
2023/06/14 10:49:18;;;;;;;10.63;3.30;;;27.10;17.80;;;;;;5014316;28;20163;-67
2023/06/14 10:51:49;;;;;;;9.07;3.25;;;27.10;12.30;;;;;;4996188;28;20241;-67
2023/06/14 10:54:20;;;;;;;5.65;3.00;;;27.20;1.00;;;;;;5013038;28;20206;-67
2023/06/14 10:56:50;;;;;;;8.68;3.35;;;27.50;1.00;;;;;;5013559;28;20190;-68
2023/06/14 10:59:18;;;;;;;13.75;3.25;;;27.40;2.20;;;;;;5013919;28;20166;-67
2023/06/14 11:02:11;;;;;;;9.57;3.15;;;27.50;1.10;;;;;;5026996;28;20265;-68
2023/06/14 11:04:56;;;;;;;11.70;3.53;;;27.60;4.70;;;;;;5033587;28;20296;-68
2023/06/14 11:07:27;;;;;;;7.82;3.03;;;27.90;1.00;;;;;;4994340;28;20510;-68
2023/06/14 11:10:34;;;;;;;9.18;2.97;;;27.80;1.00;;;;;;4994263;28;20250;-66
2023/06/14 11:13:00;;;;;;;15.90;3.65;;;28.30;1.00;;;;;;5001947;28;20189;-66
2023/06/14 11:15:36;;;;;;;9.73;3.67;;;28.40;1.00;;;;;;5031143;28;20525;-66
2023/06/14 11:18:05;;;;;;;10.93;3.10;;;28.60;1.00;;;;;;5023895;28;20189;-66
2023/06/14 11:20:32;;;;;;;15.63;3.53;;;28.50;1.00;;;;;;5031034;28;20247;-66
2023/06/14 11:22:58;;;;;;;10.85;3.63;;;28.50;1.00;;;;;;5020995;28;20178;-66
2023/06/14 11:25:26;;;;;;;10.05;3.10;;;28.90;1.00;;;;;;5013356;28;20178;-67
2023/06/14 11:27:52;;;;;;;9.65;3.65;;;29.30;1.00;;;;;;5013222;28;20198;-67
2023/06/14 11:30:18;;;;;;;6.57;3.20;;;29.30;1.00;;;;;;5013232;28;20221;-66
2023/06/14 11:32:48;;;;;;;8.93;3.53;;;29.70;1.00;;;;;;5014303;28;20185;-66
2023/06/14 11:35:14;;;;;;;11.88;3.35;;;29.60;1.00;;;;;;5012926;28;20284;-65
2023/06/14 11:37:41;;;;;;;9.25;3.00;;;29.90;1.00;;;;;;5013116;28;20167;-68
2023/06/14 11:40:08;;;;;;;15.73;3.60;;;29.90;1.00;;;;;;4998450;28;20197;-67
2023/06/14 11:42:34;;;;;;;11.77;3.80;;;29.90;1.00;;;;;;5013068;28;20174;-67
2023/06/14 11:45:01;;;;;;;7.57;3.20;;;29.90;1.00;;;;;;5013086;28;20257;-68
2023/06/14 11:47:34;;;;;;;13.95;3.92;;;30.10;1.00;;;;;;5012959;28;20177;-67
2023/06/14 11:50:00;;;;;;;14.40;4.47;;;30.40;1.00;;;;;;5013996;28;20187;-67
2023/06/14 11:52:26;;;;;;;9.43;4.18;;;30.50;1.00;;;;;;5012640;28;20215;-66
2023/06/14 11:54:52;;;;;;;9.88;3.35;;;30.20;1.00;;;;;;5012793;28;20719;-66
2023/06/14 11:57:18;;;;;;;10.25;3.65;;;29.80;1.00;;;;;;5012748;28;20182;-66
2023/06/14 11:59:45;;;;;;;9.88;3.70;;;30.30;1.00;;;;;;5012707;28;20171;-66
2023/06/14 12:02:21;;;;;;;14.52;4.22;;;30.80;1.00;;;;;;5032376;28;20680;-67
2023/06/14 12:04:48;;;;;;;11.70;3.85;;;30.80;1.00;;;;;;5032436;28;20311;-67
2023/06/14 12:07:17;;;;;;;14.38;3.50;;;31.40;1.00;;;;;;5026045;28;20231;-67
2023/06/14 12:10:07;;;;;;;12.65;3.78;;;30.90;1.00;;;;;;5012988;28;20265;-66
2023/06/14 12:12:38;;;;;;;9.95;3.85;;;31.20;1.00;;;;;;5032277;28;20181;-66
2023/06/14 12:15:09;;;;;;;11.32;3.58;;;31.20;1.00;;;;;;5032062;28;20355;-67
2023/06/14 12:17:35;;;;;;;9.30;3.47;;;31.10;1.00;;;;;;5032138;28;20178;-66
2023/06/14 12:20:16;;;;;;;12.55;3.95;;;31.00;1.00;;;;;;5029800;28;20188;-67
2023/06/14 12:22:56;;;;;;;6.57;3.63;;;31.80;1.00;;;;;;5012284;28;20162;-67
2023/06/14 12:25:34;;;;;;;10.27;4.05;;;31.60;1.00;;;;;;5011933;28;20269;-67
2023/06/14 12:28:07;;;;;;;12.23;3.38;;;32.00;1.00;;;;;;5012186;28;20273;-68
2023/06/14 12:30:33;;;;;;;9.10;3.78;;;32.00;1.00;;;;;;5012199;28;20186;-67
2023/06/14 12:33:00;;;;;;;11.63;4.10;;;32.30;1.00;;;;;;5010718;28;20305;-66
2023/06/14 12:35:25;;;;;;;13.77;4.07;;;32.20;1.00;;;;;;5015450;28;20210;-67
2023/06/14 12:37:51;;;;;;;6.20;3.72;;;32.50;1.00;;;;;;5012025;28;20186;-67
2023/06/14 12:40:17;;;;;;;12.27;3.58;;;33.00;1.00;;;;;;5012005;28;20166;-66
2023/06/14 12:42:44;;;;;;;10.23;3.72;;;33.10;1.00;;;;;;5011913;28;20201;-67
2023/06/14 12:45:10;;;;;;;9.27;3.90;;;33.10;1.00;;;;;;5025264;28;20194;-67
2023/06/14 12:47:36;;;;;;;8.55;3.90;;;33.10;1.00;;;;;;5024156;28;20177;-68
2023/06/14 12:50:02;;;;;;;13.02;3.85;;;32.50;1.00;;;;;;5011649;28;20179;-67